Time;durP1;ratioP1;P1;durP2;ratioP2;P2;SDS_P1;SDS_P2;PMS_P1;PMS_P2;Temp;Humidity;BMP_temperature;BMP_pressure;BME280_temperature;BME280_humidity;BME280_pressure;Samples;Min_cycle;Max_cycle;Signal;HPM_P1;HPM_P2
2022/09/07 00:01:17;;;;;;;5.20;2.58;;;;;;;8.78;62.18;99764.69;5031760;28;20029;-47
2022/09/07 00:03:43;;;;;;;3.00;2.67;;;;;;;8.76;61.94;99748.78;5031322;28;20041;-54
2022/09/07 00:06:11;;;;;;;6.55;3.05;;;;;;;8.79;61.95;99753.06;5029295;28;20084;-50
2022/09/07 00:08:38;;;;;;;5.25;2.67;;;;;;;8.76;62.11;99754.97;5032141;28;20061;-49
2022/09/07 00:11:06;;;;;;;4.63;2.85;;;;;;;8.74;61.79;99754.25;5029838;28;20112;-47
2022/09/07 00:13:34;;;;;;;4.30;2.80;;;;;;;8.73;61.77;99747.22;5030900;28;20029;-45
2022/09/07 00:16:05;;;;;;;3.17;2.47;;;;;;;8.72;61.91;99745.50;5031520;28;20506;-48
2022/09/07 00:18:31;;;;;;;3.05;2.70;;;;;;;8.63;62.24;99743.50;5029384;28;20474;-47
2022/09/07 00:21:16;;;;;;;4.65;2.50;;;;;;;8.71;62.05;99751.81;5030964;28;20040;-49
2022/09/07 00:23:42;;;;;;;3.17;2.50;;;;;;;8.60;61.95;99751.72;5029533;28;20105;-50
2022/09/07 00:26:10;;;;;;;3.35;2.85;;;;;;;8.57;62.41;99749.28;5031081;28;20345;-45
2022/09/07 00:28:37;;;;;;;3.75;2.53;;;;;;;8.48;62.58;99743.66;5031144;28;20358;-47
2022/09/07 00:31:03;;;;;;;3.53;2.30;;;;;;;8.51;62.57;99747.09;5029433;28;20060;-49
2022/09/07 00:33:29;;;;;;;3.33;2.50;;;;;;;8.29;62.43;99705.94;5030456;28;20037;-50
2022/09/07 00:35:57;;;;;;;3.33;2.50;;;;;;;8.51;62.58;99737.25;5031404;28;20029;-49
2022/09/07 00:38:22;;;;;;;2.53;2.33;;;;;;;8.52;62.60;99733.63;5026765;28;20416;-49
2022/09/07 00:40:48;;;;;;;2.30;2.10;;;;;;;8.52;62.43;99736.28;5030733;28;20060;-47
2022/09/07 00:43:48;;;;;;;4.80;2.72;;;;;;;8.69;62.17;99736.88;5030854;28;20021;-53
2022/09/07 00:46:16;;;;;;;4.32;2.47;;;;;;;8.57;62.07;99739.50;5020299;28;20395;-48
2022/09/07 00:48:47;;;;;;;2.90;2.60;;;;;;;8.58;62.38;99730.53;5011523;28;20038;-45
2022/09/07 00:51:18;;;;;;;4.30;2.80;;;;;;;8.54;62.42;99729.00;5014874;28;20129;-50
2022/09/07 00:53:53;;;;;;;3.15;2.65;;;;;;;8.53;62.67;99721.97;5012605;28;20033;-47
2022/09/07 00:56:22;;;;;;;2.58;2.38;;;;;;;8.51;62.42;99721.25;5011487;28;20052;-49
2022/09/07 00:58:48;;;;;;;6.35;2.47;;;;;;;8.50;62.34;99716.03;5011532;28;20122;-51
2022/09/07 01:01:15;;;;;;;5.43;3.08;;;;;;;8.49;62.50;99725.81;5009896;28;20429;-50
2022/09/07 01:03:46;;;;;;;2.85;2.55;;;;;;;8.35;62.22;99691.31;5011588;28;20030;-49
2022/09/07 01:06:18;;;;;;;2.53;2.33;;;;;;;8.52;62.67;99716.78;5011699;28;20500;-53
2022/09/07 01:08:46;;;;;;;4.68;2.53;;;;;;;8.46;62.32;99721.56;5011096;28;20037;-46
2022/09/07 01:11:12;;;;;;;3.50;2.50;;;;;;;8.32;62.20;99693.25;5011569;28;20398;-47
2022/09/07 01:13:43;;;;;;;2.22;2.03;;;;;;;8.53;62.42;99710.47;5011063;28;20030;-46
2022/09/07 01:16:37;;;;;;;3.80;2.50;;;;;;;8.58;62.38;99713.63;5010554;28;20038;-45
2022/09/07 01:19:40;;;;;;;3.28;2.45;;;;;;;8.57;62.41;99715.47;5010623;28;20138;-46
2022/09/07 01:22:23;;;;;;;2.72;2.22;;;;;;;8.55;62.31;99708.53;5011047;28;20034;-44
2022/09/07 01:25:09;;;;;;;4.40;2.33;;;;;;;8.52;62.44;99711.44;5022776;28;20430;-46
2022/09/07 01:28:02;;;;;;;3.30;2.58;;;;;;;8.36;62.80;99709.84;5029767;28;20041;-52
2022/09/07 01:30:30;;;;;;;3.80;2.47;;;;;;;8.30;63.09;99707.66;5028441;28;20026;-50
2022/09/07 01:33:14;;;;;;;2.75;2.40;;;;;;;8.31;63.04;99706.69;5030765;28;20029;-48
2022/09/07 01:35:53;;;;;;;3.00;2.40;;;;;;;8.28;63.15;99712.25;5029474;28;20037;-45
2022/09/07 01:38:35;;;;;;;2.78;2.50;;;;;;;8.24;63.36;99710.75;5026476;28;20343;-52
2022/09/07 01:41:11;;;;;;;4.57;2.88;;;;;;;8.16;63.31;99711.31;5030333;28;20076;-49
2022/09/07 01:44:04;;;;;;;4.63;2.40;;;;;;;8.12;63.63;99702.69;5028999;28;20037;-47
2022/09/07 01:46:39;;;;;;;2.53;2.20;;;;;;;8.02;63.99;99701.66;5029989;28;20044;-47
2022/09/07 01:49:20;;;;;;;3.40;2.40;;;;;;;7.95;64.34;99695.91;5027744;28;20121;-44
2022/09/07 01:51:49;;;;;;;2.63;2.28;;;;;;;7.82;64.42;99695.06;5031146;28;20338;-45
2022/09/07 01:54:25;;;;;;;3.15;2.67;;;;;;;7.80;64.71;99692.53;5031048;28;20025;-46
2022/09/07 01:56:55;;;;;;;4.60;2.60;;;;;;;7.67;65.00;99692.53;5017905;28;20061;-47
2022/09/07 01:59:43;;;;;;;3.50;2.60;;;;;;;7.70;65.14;99687.00;5029070;28;20044;-52
2022/09/07 02:02:15;;;;;;;5.05;2.60;;;;;;;7.58;65.32;99686.06;5026672;28;20038;-46
2022/09/07 02:04:59;;;;;;;3.88;2.70;;;;;;;7.45;65.64;99661.22;5010588;28;20030;-47
2022/09/07 02:07:28;;;;;;;5.05;2.70;;;;;;;7.60;65.21;99694.78;5012242;28;20048;-46
2022/09/07 02:10:23;;;;;;;4.57;2.40;;;;;;;7.61;65.57;99699.16;5014127;28;20124;-48
2022/09/07 02:13:16;;;;;;;3.22;2.88;;;;;;;7.66;65.59;99685.50;5014650;28;20025;-46
2022/09/07 02:15:51;;;;;;;3.20;2.40;;;;;;;7.60;65.45;99681.47;5013533;28;20485;-47
2022/09/07 02:18:20;;;;;;;5.13;2.50;;;;;;;7.64;65.48;99686.56;5021615;28;20055;-45
2022/09/07 02:20:51;;;;;;;3.60;2.90;;;;;;;7.65;65.68;99677.63;5020826;28;20049;-46
2022/09/07 02:23:27;;;;;;;4.40;2.50;;;;;;;7.74;65.45;99684.97;5014011;28;20029;-50
2022/09/07 02:26:01;;;;;;;3.53;2.70;;;;;;;7.76;65.43;99680.38;5013546;28;20079;-45
2022/09/07 02:28:34;;;;;;;3.38;2.55;;;;;;;7.79;65.31;99682.81;5022193;28;20048;-46
2022/09/07 02:31:00;;;;;;;5.03;2.70;;;;;;;7.76;65.51;99688.38;5033322;28;20030;-45
2022/09/07 02:33:27;;;;;;;3.05;2.30;;;;;;;7.79;65.12;99684.63;5022485;28;20033;-45
2022/09/07 02:35:53;;;;;;;3.00;2.70;;;;;;;7.81;65.36;99675.56;5013311;28;20045;-50
2022/09/07 02:38:19;;;;;;;4.93;2.58;;;;;;;7.84;65.57;99675.34;5020112;28;20025;-47
2022/09/07 02:40:52;;;;;;;3.50;2.50;;;;;;;7.89;65.39;99675.84;5032360;28;20040;-51
2022/09/07 02:43:21;;;;;;;6.80;2.90;;;;;;;7.89;65.39;99683.84;5033700;28;20041;-47
2022/09/07 02:46:14;;;;;;;3.05;2.65;;;;;;;7.97;65.46;99683.31;5021654;28;20141;-48
2022/09/07 02:49:08;;;;;;;6.05;2.60;;;;;;;7.85;64.95;99642.41;5013157;28;20034;-45
2022/09/07 02:52:04;;;;;;;4.75;2.30;;;;;;;8.10;64.88;99669.09;5013350;28;20025;-49
2022/09/07 02:54:38;;;;;;;3.00;2.70;;;;;;;8.13;64.81;99672.38;5013373;28;20530;-44
2022/09/07 02:57:07;;;;;;;3.75;2.55;;;;;;;8.16;64.67;99663.31;5012766;28;20045;-46
2022/09/07 03:00:01;;;;;;;4.13;2.85;;;;;;;8.27;64.58;99673.19;5018820;28;20041;-49
2022/09/07 03:02:38;;;;;;;;;;;;;;;8.57;63.11;99658.56;5031222;28;20121;-47
2022/09/07 03:05:13;;;;;;;2.78;2.30;;;;;;;8.42;63.58;99664.03;5031968;28;19917;-49
2022/09/07 03:07:45;;;;;;;2.67;2.47;;;;;;;8.46;63.81;99657.53;5030721;28;20050;-48
2022/09/07 03:10:12;;;;;;;4.38;2.78;;;;;;;8.46;63.41;99662.00;5033269;28;20468;-48
2022/09/07 03:12:44;;;;;;;3.40;2.47;;;;;;;8.51;63.54;99659.88;5032235;28;20038;-47
2022/09/07 03:15:12;;;;;;;7.18;2.90;;;;;;;8.56;63.52;99662.19;5024973;28;20103;-47
2022/09/07 03:17:39;;;;;;;4.78;2.78;;;;;;;8.58;63.62;99662.94;5012744;28;20084;-46
2022/09/07 03:20:04;;;;;;;2.38;2.15;;;;;;;8.61;63.25;99660.03;5012445;28;20462;-45
2022/09/07 03:22:32;;;;;;;4.57;2.85;;;;;;;8.65;63.21;99661.50;5013115;28;20060;-48
2022/09/07 03:24:57;;;;;;;5.40;2.83;;;;;;;8.66;63.32;99659.69;5012570;28;20065;-47
2022/09/07 03:27:22;;;;;;;4.07;2.35;;;;;;;8.71;63.75;99652.19;5013884;28;20053;-47
2022/09/07 03:29:48;;;;;;;4.47;3.00;;;;;;;8.72;64.41;99645.88;5012998;28;20065;-44
2022/09/07 03:32:13;;;;;;;3.05;2.60;;;;;;;8.71;64.93;99630.84;5012363;28;20478;-44
2022/09/07 03:34:39;;;;;;;4.57;2.90;;;;;;;8.74;64.35;99639.47;5012858;28;20046;-46
2022/09/07 03:37:04;;;;;;;4.60;2.60;;;;;;;8.74;65.07;99634.13;5012017;28;20034;-46
2022/09/07 03:39:30;;;;;;;3.22;2.63;;;;;;;8.70;64.31;99646.00;5013665;28;20037;-50
2022/09/07 03:41:56;;;;;;;4.53;2.78;;;;;;;8.68;65.20;99639.94;5012223;28;20470;-51
2022/09/07 03:44:21;;;;;;;4.40;2.50;;;;;;;8.70;65.45;99638.00;5012277;28;20036;-49
2022/09/07 03:46:47;;;;;;;3.53;2.58;;;;;;;8.77;64.80;99643.72;5023885;28;20032;-45
2022/09/07 03:49:14;;;;;;;2.70;2.28;;;;;;;8.82;64.74;99638.03;5032204;28;20036;-47
2022/09/07 03:51:40;;;;;;;3.28;2.50;;;;;;;8.76;64.41;99629.53;5029976;28;20113;-44
2022/09/07 03:54:06;;;;;;;3.05;2.78;;;;;;;8.79;64.18;99639.09;5031124;28;20132;-49
2022/09/07 03:56:31;;;;;;;5.43;2.58;;;;;;;8.82;64.72;99635.34;5031897;28;20641;-49
2022/09/07 03:58:57;;;;;;;2.63;2.22;;;;;;;8.85;64.85;99632.44;5030466;28;20037;-52
2022/09/07 04:01:24;;;;;;;4.72;2.63;;;;;;;8.85;64.23;99630.66;5031191;28;20040;-46
2022/09/07 04:03:51;;;;;;;4.32;2.40;;;;;;;8.81;63.88;99631.00;5011687;28;20034;-47
2022/09/07 04:06:18;;;;;;;3.95;2.78;;;;;;;8.84;64.46;99636.94;5012823;28;20056;-47
2022/09/07 04:08:44;;;;;;;2.60;2.40;;;;;;;8.85;63.84;99633.31;5012416;28;20049;-48
2022/09/07 04:11:12;;;;;;;2.58;2.20;;;;;;;8.87;63.80;99623.38;5011476;28;20042;-55
2022/09/07 04:13:38;;;;;;;2.83;2.50;;;;;;;8.85;63.81;99635.13;5030139;28;20061;-50
2022/09/07 04:16:22;;;;;;;2.92;2.63;;;;;;;8.93;64.49;99627.38;5031299;28;20133;-44
2022/09/07 04:18:49;;;;;;;3.45;2.70;;;;;;;8.82;64.15;99632.69;5029438;28;20901;-51
2022/09/07 04:21:18;;;;;;;4.95;2.45;;;;;;;8.80;64.54;99626.63;5031176;28;20041;-47
2022/09/07 04:23:44;;;;;;;3.83;2.92;;;;;;;8.79;64.47;99619.56;5031199;28;20099;-46
2022/09/07 04:26:20;;;;;;;2.67;2.40;;;;;;;9.04;63.88;99631.88;5028792;28;20029;-47
2022/09/07 04:28:47;;;;;;;3.63;2.50;;;;;;;9.31;62.78;99630.72;5031201;28;20034;-46
2022/09/07 04:31:14;;;;;;;3.33;2.55;;;;;;;10.02;61.21;99618.84;5021882;28;20033;-46
2022/09/07 04:33:40;;;;;;;3.65;2.30;;;;;;;12.81;54.15;99614.47;5011480;28;20121;-47
2022/09/07 04:36:06;;;;;;;3.35;2.08;;;;;;;16.23;44.72;99607.44;5010959;28;20136;-45
2022/09/07 04:38:32;;;;;;;3.35;1.92;;;;;;;19.03;38.41;99607.41;5029580;28;20025;-49
2022/09/07 04:41:02;;;;;;;3.90;2.22;;;;;;;21.23;34.57;99605.75;5031748;28;20048;-46
2022/09/07 04:43:28;;;;;;;2.90;2.10;;;;;;;22.97;30.87;99609.25;5029100;28;20505;-46
2022/09/07 04:45:54;;;;;;;2.10;2.00;;;;;;;24.53;27.77;99605.78;5030808;28;20462;-53
2022/09/07 04:48:20;;;;;;;2.42;2.17;;;;;;;24.26;27.86;99605.09;5029572;28;20091;-52
2022/09/07 04:50:46;;;;;;;3.30;1.85;;;;;;;23.51;28.91;99602.69;5011289;28;20038;-51
2022/09/07 04:53:11;;;;;;;2.15;1.95;;;;;;;22.94;29.15;99600.41;5010997;28;20057;-49
2022/09/07 04:55:36;;;;;;;4.18;2.17;;;;;;;22.42;30.22;99599.31;5012211;28;20083;-53
2022/09/07 04:58:02;;;;;;;2.33;1.90;;;;;;;23.13;29.24;99597.03;5011274;28;20335;-53
2022/09/07 05:00:28;;;;;;;2.78;1.80;;;;;;;24.30;27.14;99590.78;5010962;28;20033;-52
2022/09/07 05:02:53;;;;;;;3.55;1.92;;;;;;;24.15;27.29;99591.09;5010271;28;20051;-54
2022/09/07 05:05:19;;;;;;;3.22;2.17;;;;;;;23.34;28.25;99604.19;5011891;28;20026;-51
2022/09/07 05:07:44;;;;;;;1.73;1.63;;;;;;;22.20;29.47;99592.16;5010736;28;20117;-53
2022/09/07 05:10:10;;;;;;;3.15;1.85;;;;;;;21.04;31.59;99599.09;5011679;28;20059;-54
2022/09/07 05:12:37;;;;;;;4.03;2.25;;;;;;;20.05;32.85;99601.53;5010995;28;20038;-54
2022/09/07 05:15:03;;;;;;;3.20;2.05;;;;;;;19.05;34.68;99599.97;5011490;28;20052;-51
2022/09/07 05:17:29;;;;;;;2.90;1.60;;;;;;;18.18;36.71;99607.41;5028514;28;20029;-52
2022/09/07 05:19:56;;;;;;;2.35;1.80;;;;;;;17.29;38.22;99578.66;5030273;28;20037;-48
2022/09/07 05:22:21;;;;;;;4.05;1.80;;;;;;;16.89;39.32;99613.72;5030583;28;20093;-52
2022/09/07 05:24:47;;;;;;;2.25;1.95;;;;;;;16.42;40.20;99614.38;5031182;28;20109;-47
2022/09/07 05:27:12;;;;;;;3.03;2.13;;;;;;;15.95;41.34;99610.41;5013722;28;20113;-53
2022/09/07 05:29:38;;;;;;;2.90;1.95;;;;;;;15.54;42.26;99609.22;5009787;28;20062;-50
2022/09/07 05:32:03;;;;;;;3.83;2.15;;;;;;;15.19;43.29;99611.03;5028992;28;20041;-51
2022/09/07 05:34:29;;;;;;;2.90;2.70;;;;;;;15.03;43.52;99615.34;5031252;28;20044;-53
2022/09/07 05:36:55;;;;;;;2.55;2.15;;;;;;;14.79;43.87;99610.59;5014063;28;20112;-51
2022/09/07 05:39:21;;;;;;;2.05;1.85;;;;;;;14.54;44.87;99614.91;5010217;28;20034;-49
2022/09/07 05:41:46;;;;;;;3.70;2.65;;;;;;;14.33;45.42;99608.00;5021694;28;20464;-51
2022/09/07 05:44:13;;;;;;;4.13;2.50;;;;;;;14.05;45.75;99581.13;5034681;28;20041;-50
2022/09/07 05:46:39;;;;;;;3.90;2.70;;;;;;;14.26;45.89;99590.78;5034314;28;20095;-48
2022/09/07 05:49:06;;;;;;;3.15;2.83;;;;;;;14.64;45.19;99596.81;5033927;28;20108;-54
2022/09/07 05:51:32;;;;;;;2.47;2.28;;;;;;;15.23;43.82;99590.84;5034366;28;20116;-51
2022/09/07 05:53:58;;;;;;;5.32;2.33;;;;;;;15.53;42.98;99595.88;5034639;28;20496;-51
2022/09/07 05:56:24;;;;;;;4.50;2.40;;;;;;;15.50;42.94;99591.66;5021306;28;20041;-52
2022/09/07 05:58:50;;;;;;;4.32;2.63;;;;;;;15.19;43.29;99598.41;5014064;28;20127;-54
2022/09/07 06:01:16;;;;;;;3.20;2.70;;;;;;;14.87;44.43;99596.34;5020328;28;20026;-53
2022/09/07 06:03:43;;;;;;;3.53;2.78;;;;;;;16.29;41.94;99591.41;5023353;28;20037;-51
2022/09/07 06:06:14;;;;;;;3.30;2.55;;;;;;;21.20;33.37;99587.06;5031005;28;20158;-53
2022/09/07 06:08:45;;;;;;;6.13;2.55;;;;;;;24.63;27.64;99586.13;5023356;28;20052;-51
2022/09/07 06:11:13;;;;;;;5.18;2.35;;;;;;;28.16;22.74;99586.06;5030739;28;20026;-49
2022/09/07 06:13:40;;;;;;;4.80;3.00;;;;;;;30.62;19.29;99584.50;5013609;28;20429;-51
2022/09/07 06:16:08;;;;;;;4.85;2.22;;;;;;;28.86;21.05;99593.31;5013760;28;20026;-51
2022/09/07 06:18:35;;;;;;;4.25;2.40;;;;;;;27.73;22.21;99592.88;5014878;28;20033;-52
2022/09/07 06:21:12;;;;;;;8.63;2.28;;;;;;;29.64;20.64;99587.84;5013889;28;20262;-51
2022/09/07 06:23:40;;;;;;;3.10;2.22;;;;;;;31.10;18.55;99589.28;5014446;28;20569;-53
2022/09/07 06:26:05;;;;;;;6.68;2.10;;;;;;;30.66;19.09;99580.13;5025120;28;20375;-53
2022/09/07 06:28:36;;;;;;;5.43;2.33;;;;;;;32.68;17.41;99585.72;5031904;28;20033;-47
2022/09/07 06:31:11;;;;;;;4.13;1.85;;;;;;;34.70;15.49;99584.94;5034026;28;20112;-53
2022/09/07 06:33:37;;;;;;;2.00;1.90;;;;;;;36.13;13.84;99574.44;5033566;28;20029;-50
2022/09/07 06:36:05;;;;;;;3.10;1.83;;;;;;;36.66;13.41;99573.34;5016624;28;20033;-52
2022/09/07 06:38:34;;;;;;;3.33;1.80;;;;;;;36.39;13.37;99574.88;5013604;28;20044;-53
2022/09/07 06:41:04;;;;;;;2.75;1.65;;;;;;;37.77;12.38;99557.84;5014710;28;20107;-52
2022/09/07 06:43:30;;;;;;;3.83;1.75;;;;;;;36.66;12.55;99547.41;5024601;28;20657;-49
2022/09/07 06:45:56;;;;;;;3.13;1.70;;;;;;;36.68;12.29;99561.88;5033489;28;20208;-51
2022/09/07 06:48:21;;;;;;;3.60;1.90;;;;;;;36.58;12.68;99562.88;5031073;28;20026;-50
2022/09/07 06:50:58;;;;;;;5.18;1.90;;;;;;;34.86;14.80;99571.72;5033009;28;20042;-54
2022/09/07 06:53:25;;;;;;;3.33;2.08;;;;;;;32.14;15.84;99574.84;5032775;28;20034;-53
2022/09/07 06:55:51;;;;;;;3.50;1.90;;;;;;;31.32;17.12;99567.03;5030560;28;20112;-53
2022/09/07 06:58:17;;;;;;;3.75;1.63;;;;;;;30.24;17.80;99562.31;5032789;28;20120;-53
2022/09/07 07:00:42;;;;;;;3.53;1.60;;;;;;;29.65;18.52;99575.72;5031531;28;20128;-52
2022/09/07 07:03:08;;;;;;;2.60;1.90;;;;;;;29.43;18.48;99564.69;5032791;28;20489;-52
2022/09/07 07:05:34;;;;;;;3.78;1.70;;;;;;;30.06;18.00;99561.59;5021514;28;20045;-56
2022/09/07 07:07:59;;;;;;;3.00;1.73;;;;;;;31.52;16.32;99558.00;5024668;28;20041;-52
2022/09/07 07:10:24;;;;;;;5.18;1.73;;;;;;;32.14;16.17;99551.84;5013646;28;20117;-55
2022/09/07 07:12:51;;;;;;;3.33;1.67;;;;;;;33.11;15.41;99536.31;5032170;28;20105;-51
2022/09/07 07:15:17;;;;;;;5.38;1.67;;;;;;;33.97;14.67;99543.78;5030472;28;20069;-52
2022/09/07 07:17:43;;;;;;;5.38;2.28;;;;;;;34.33;13.72;99545.47;5028416;28;20061;-54
2022/09/07 07:20:09;;;;;;;3.95;1.65;;;;;;;34.26;13.63;99547.75;5022859;28;20064;-51
2022/09/07 07:22:34;;;;;;;2.72;1.80;;;;;;;33.84;14.16;99542.44;5031901;28;20033;-48
2022/09/07 07:25:00;;;;;;;5.07;2.17;;;;;;;33.40;14.70;99548.72;5016953;28;20038;-50
2022/09/07 07:27:25;;;;;;;3.05;1.40;;;;;;;33.00;15.10;99551.34;5021232;28;20045;-50
2022/09/07 07:29:52;;;;;;;2.25;1.58;;;;;;;31.99;15.74;99555.41;5032525;28;20025;-51
2022/09/07 07:32:18;;;;;;;4.50;1.80;;;;;;;31.63;16.29;99554.19;5024659;28;20035;-54
2022/09/07 07:34:43;;;;;;;3.95;1.75;;;;;;;30.24;17.22;99556.78;5025684;28;20036;-56
2022/09/07 07:37:10;;;;;;;2.50;1.88;;;;;;;29.04;18.33;99551.72;5017063;28;20125;-55
2022/09/07 07:39:35;;;;;;;4.38;1.77;;;;;;;28.10;19.71;99553.16;5026121;28;20068;-53
2022/09/07 07:42:01;;;;;;;2.90;1.90;;;;;;;27.14;20.63;99558.06;5022272;28;20112;-54
2022/09/07 07:44:26;;;;;;;3.22;1.88;;;;;;;26.86;20.99;99545.88;5029916;28;20032;-53
2022/09/07 07:46:52;;;;;;;3.25;1.73;;;;;;;26.58;21.16;99550.13;5029767;28;20056;-52
2022/09/07 07:49:18;;;;;;;4.22;1.70;;;;;;;26.76;21.15;99551.94;5030263;28;20534;-52
2022/09/07 07:51:43;;;;;;;4.80;1.65;;;;;;;26.48;21.23;99553.47;5019573;28;20041;-54
2022/09/07 07:54:09;;;;;;;1.90;1.70;;;;;;;26.05;21.67;99536.16;5018177;28;20188;-57
2022/09/07 07:56:34;;;;;;;1.52;1.38;;;;;;;25.26;22.63;99545.94;5017870;28;20473;-50
2022/09/07 07:59:00;;;;;;;3.20;1.83;;;;;;;25.82;21.77;99537.72;5020703;28;20061;-55
2022/09/07 08:01:25;;;;;;;8.52;2.20;;;;;;;25.89;22.07;99538.47;5011167;28;20033;-55
2022/09/07 08:03:51;;;;;;;4.80;1.60;;;;;;;25.34;22.74;99534.72;5023251;28;20079;-50
2022/09/07 08:06:20;;;;;;;6.65;1.75;;;;;;;24.50;23.49;99522.22;5019925;28;20494;-55
2022/09/07 08:08:45;;;;;;;2.38;1.40;;;;;;;24.09;24.02;99529.03;5025776;28;20087;-49
2022/09/07 08:11:19;;;;;;;7.18;1.63;;;;;;;23.88;24.69;99538.41;5026551;28;20041;-48
2022/09/07 08:13:46;;;;;;;3.80;1.50;;;;;;;23.53;24.84;99530.59;5011230;28;20034;-50
2022/09/07 08:16:12;;;;;;;1.52;1.42;;;;;;;23.11;25.18;99520.81;5010956;28;20046;-53
2022/09/07 08:18:38;;;;;;;1.50;1.40;;;;;;;22.45;26.18;99530.72;5014484;28;20125;-47
2022/09/07 08:21:11;;;;;;;4.03;1.40;;;;;;;21.81;26.98;99525.59;5019827;28;20026;-48
2022/09/07 08:23:38;;;;;;;4.22;1.70;;;;;;;21.12;28.15;99519.19;5012512;28;20471;-50
2022/09/07 08:26:03;;;;;;;2.08;1.50;;;;;;;20.60;28.97;99516.72;5013901;28;20036;-54
2022/09/07 08:28:32;;;;;;;4.72;1.70;;;;;;;20.28;29.37;99513.53;5018401;28;20030;-51
2022/09/07 08:30:58;;;;;;;5.50;1.40;;;;;;;19.70;30.05;99520.63;5014102;28;20034;-54
2022/09/07 08:33:24;;;;;;;2.78;1.30;;;;;;;19.11;31.04;99510.69;5012737;28;20033;-51
2022/09/07 08:36:22;;;;;;;1.60;1.50;;;;;;;19.05;30.96;99512.28;5020966;28;20065;-49
2022/09/07 08:38:47;;;;;;;1.45;1.33;;;;;;;18.61;31.82;99501.19;5025322;28;20092;-51
2022/09/07 08:41:22;;;;;;;1.88;1.52;;;;;;;18.54;31.68;99513.78;5016266;28;20550;-52
2022/09/07 08:44:09;;;;;;;3.38;1.35;;;;;;;18.66;31.65;99503.34;5016277;28;20156;-50
2022/09/07 08:46:55;;;;;;;4.90;1.52;;;;;;;18.68;31.61;99498.56;5019280;28;20038;-52
2022/09/07 08:49:20;;;;;;;;;;;;;;;19.07;30.41;99507.50;5021080;28;20045;-53
2022/09/07 08:51:48;;;;;;;;;;;;;;;19.03;30.01;99501.59;5019032;28;20353;-53
2022/09/07 08:54:15;;;;;;;8.70;1.95;;;;;;;17.92;32.34;99505.63;5020321;28;19921;-49
2022/09/07 08:56:52;;;;;;;1.88;1.40;;;;;;;17.45;33.18;99501.16;5012368;28;20151;-52
2022/09/07 08:59:25;;;;;;;1.77;1.50;;;;;;;17.01;33.71;99503.34;5011219;28;20029;-49
2022/09/07 09:01:51;;;;;;;3.28;1.40;;;;;;;16.81;34.19;99502.88;5010670;28;20037;-53
2022/09/07 09:04:27;;;;;;;4.88;1.75;;;;;;;17.02;33.74;99496.94;5014308;28;20399;-55
2022/09/07 09:07:07;;;;;;;5.18;1.40;;;;;;;17.04;33.27;99496.75;5022474;28;20045;-54
2022/09/07 09:09:44;;;;;;;6.32;1.50;;;;;;;16.79;34.01;99504.91;5021760;28;20100;-48
2022/09/07 09:12:57;;;;;;;3.13;1.30;;;;;;;16.96;33.68;99494.03;5030628;28;20048;-52
2022/09/07 09:15:25;;;;;;;3.90;1.50;;;;;;;17.10;32.50;99495.19;5028225;28;20044;-54
2022/09/07 09:17:54;;;;;;;2.85;1.10;;;;;;;16.98;32.54;99498.28;5008700;28;20046;-52
2022/09/07 09:20:20;;;;;;;1.98;1.30;;;;;;;16.72;32.87;99496.66;5009404;28;20108;-55
2022/09/07 09:22:46;;;;;;;7.20;1.90;;;;;;;16.80;33.14;99501.19;5023505;28;20441;-52
2022/09/07 09:25:20;;;;;;;10.80;2.00;;;;;;;17.12;32.94;99494.03;5019304;28;20030;-53
2022/09/07 09:27:48;;;;;;;7.93;1.60;;;;;;;17.15;32.26;99477.44;5019509;28;20489;-51
2022/09/07 09:30:17;;;;;;;6.60;2.03;;;;;;;17.51;31.77;99489.63;5025253;28;20116;-56
2022/09/07 09:32:45;;;;;;;10.20;1.70;;;;;;;17.63;31.52;99487.34;5029374;28;20382;-60
2022/09/07 09:35:36;;;;;;;5.05;1.90;;;;;;;17.92;31.13;99491.22;5025301;28;20436;-56
2022/09/07 09:38:02;;;;;;;2.40;1.35;;;;;;;17.87;30.86;99494.47;5019683;28;20082;-58
2022/09/07 09:40:33;;;;;;;4.78;1.60;;;;;;;17.76;30.97;99467.81;5022819;28;20061;-53
2022/09/07 09:43:20;;;;;;;5.53;1.52;;;;;;;17.90;30.79;99493.25;5024134;28;20029;-54
2022/09/07 09:45:54;;;;;;;4.38;1.83;;;;;;;17.99;31.07;99488.63;5016901;28;20053;-56
2022/09/07 09:48:27;;;;;;;6.57;1.50;;;;;;;18.04;31.04;99491.66;5024279;28;20045;-54
2022/09/07 09:50:56;;;;;;;2.50;1.52;;;;;;;18.02;30.60;99483.75;5027237;28;20037;-54
2022/09/07 09:53:28;;;;;;;4.85;1.60;;;;;;;18.13;30.86;99489.75;5016597;28;20069;-54
2022/09/07 09:55:55;;;;;;;12.10;1.70;;;;;;;18.01;30.64;99483.88;5011460;28;20113;-54
2022/09/07 09:58:29;;;;;;;4.10;1.30;;;;;;;17.97;30.90;99490.69;5019694;28;20120;-50
2022/09/07 10:01:03;;;;;;;3.40;1.38;;;;;;;17.70;31.42;99490.19;5014734;28;20069;-58
2022/09/07 10:03:31;;;;;;;2.75;1.30;;;;;;;17.67;31.86;99485.13;5009987;28;20084;-60
2022/09/07 10:05:59;;;;;;;3.88;1.23;;;;;;;17.60;32.28;99493.13;5009424;28;20494;-60
2022/09/07 10:08:27;;;;;;;3.95;1.30;;;;;;;17.50;32.74;99496.03;5020360;28;20042;-54
2022/09/07 10:10:59;;;;;;;1.70;1.20;;;;;;;17.45;32.65;99493.03;5009831;28;20034;-53
2022/09/07 10:13:53;;;;;;;4.32;1.27;;;;;;;17.21;33.22;99492.97;5011111;28;20134;-55
2022/09/07 10:16:39;;;;;;;3.75;1.38;;;;;;;17.04;33.31;99489.47;5011263;28;20026;-61
2022/09/07 10:19:04;;;;;;;3.45;1.50;;;;;;;16.77;34.04;99478.03;5010307;28;20030;-62
2022/09/07 10:21:31;;;;;;;3.22;1.40;;;;;;;16.84;34.15;99480.91;5013027;28;20056;-58
2022/09/07 10:24:05;;;;;;;5.70;1.50;;;;;;;17.00;34.62;99485.44;5029064;28;20462;-61
2022/09/07 10:26:36;;;;;;;1.33;1.20;;;;;;;17.17;34.01;99479.97;5021178;28;20034;-60
2022/09/07 10:29:28;;;;;;;3.38;1.27;;;;;;;17.54;33.35;99474.91;5010585;28;20459;-61
2022/09/07 10:32:06;;;;;;;2.05;1.25;;;;;;;17.54;33.11;99483.00;5011254;28;20038;-60
2022/09/07 10:35:03;;;;;;;2.42;1.30;;;;;;;17.59;33.11;99484.13;5014803;28;20121;-59
2022/09/07 10:37:32;;;;;;;2.25;1.27;;;;;;;17.33;33.80;99484.47;5030604;28;20034;-60
2022/09/07 10:40:11;;;;;;;2.10;1.20;;;;;;;17.05;34.45;99482.22;5032561;28;20450;-60
2022/09/07 10:42:44;;;;;;;1.45;1.35;;;;;;;16.74;35.54;99489.19;5032035;28;20047;-58
2022/09/07 10:45:27;;;;;;;1.88;1.35;;;;;;;16.40;36.02;99463.25;5011435;28;20034;-57
2022/09/07 10:47:58;;;;;;;1.58;1.42;;;;;;;16.40;36.40;99495.69;5013434;28;20474;-61
2022/09/07 10:50:41;;;;;;;1.20;1.10;;;;;;;16.35;36.94;99484.50;5018968;28;20441;-58
2022/09/07 10:53:28;;;;;;;4.32;1.50;;;;;;;16.22;37.48;99498.53;5031018;28;20256;-57
2022/09/07 10:56:05;;;;;;;1.95;1.75;;;;;;;15.91;38.99;99491.97;5022014;28;20038;-61
2022/09/07 10:58:38;;;;;;;4.70;1.83;;;;;;;15.59;40.88;99496.22;5024038;28;20120;-56
2022/09/07 11:01:20;;;;;;;3.00;1.60;;;;;;;15.34;41.69;99498.84;5019742;28;20399;-57
2022/09/07 11:03:45;;;;;;;2.25;1.60;;;;;;;14.93;43.62;99490.56;5012969;28;20061;-56
2022/09/07 11:06:31;;;;;;;2.35;1.48;;;;;;;14.69;44.94;99494.78;5012144;28;20461;-56
2022/09/07 11:09:26;;;;;;;4.28;1.90;;;;;;;14.54;45.48;99499.09;5025480;28;20060;-57
2022/09/07 11:12:07;;;;;;;5.05;1.70;;;;;;;14.33;45.94;99508.34;5032979;28;20025;-55
2022/09/07 11:14:57;;;;;;;2.13;1.77;;;;;;;14.09;48.00;99507.16;5021499;28;20041;-62
2022/09/07 11:17:26;;;;;;;5.28;1.67;;;;;;;13.83;49.22;99523.19;5013266;28;20046;-62
2022/09/07 11:20:01;;;;;;;2.63;1.50;;;;;;;13.61;49.15;99515.41;5027333;28;20529;-58
2022/09/07 11:22:31;;;;;;;2.58;1.50;;;;;;;13.21;50.16;99487.03;5013539;28;20117;-62
2022/09/07 11:25:28;;;;;;;5.65;1.90;;;;;;;13.24;51.16;99521.66;5012726;28;20386;-61
2022/09/07 11:28:06;;;;;;;4.15;1.88;;;;;;;12.87;51.44;99490.28;5012475;28;20055;-60
2022/09/07 11:30:42;;;;;;;2.00;1.67;;;;;;;12.86;52.62;99518.16;5011597;28;20029;-60
2022/09/07 11:33:43;;;;;;;5.53;1.90;;;;;;;12.72;53.32;99509.56;5014200;28;20030;-59
2022/09/07 11:36:15;;;;;;;4.72;2.10;;;;;;;12.54;54.18;99509.47;5030360;28;20041;-61
2022/09/07 11:38:50;;;;;;;6.57;1.60;;;;;;;12.48;54.69;99507.38;5032226;28;20060;-60
2022/09/07 11:41:39;;;;;;;8.30;2.10;;;;;;;12.55;53.86;99513.00;5020698;28;20037;-61
2022/09/07 11:44:33;;;;;;;3.85;1.80;;;;;;;12.54;54.59;99496.03;5031458;28;20033;-60
2022/09/07 11:47:08;;;;;;;11.32;2.30;;;;;;;12.48;55.77;99496.63;5012042;28;20038;-53
2022/09/07 11:49:34;;;;;;;9.40;2.80;;;;;;;12.40;55.71;99486.59;5017457;28;20530;-49
2022/09/07 11:52:34;;;;;;;2.15;1.80;;;;;;;12.43;53.46;99499.72;5023233;28;20124;-52
2022/09/07 11:55:09;;;;;;;6.25;2.70;;;;;;;12.47;54.65;99497.63;5030035;28;20128;-52
2022/09/07 11:57:46;;;;;;;3.33;2.20;;;;;;;12.37;54.91;99492.25;5028921;28;20056;-53